Weather at Maboxi Airport

Public forecast

Using degrees Celsius for public forecast. Weather courtesy of forecast.io.

Closest aviation weather report (METAR) to Maboxi Airport

Report is more than 6 hours old.

Closest report is Iringa Airport, 94.8 nm (175.5 km) WNW.

2023/09/29 20:00 (retrieved 8 hours ago)

HTIR 292000Z 00000KT 9999A A FEW023A A 18/11 Q1022

Closest aviation forecast (TAF) to Maboxi Airport

Forecast is more than 6 hours old.

Closest forecast is Julius Nyerere International Airport, 151.3 nm (280.3 km) NE.

2023/09/29 18:06 (retrieved 9 hours ago)

TAF HTDA 291700Z 2918/3024 15005KT 9999 SCT014 PROB40 TEMPO 3006/3009 RA BKN015 FEW016CB BECMG 3011/3014 NSW 14015KT SCT026